METAR 2015/01/26 :

EPMO 12:00: METAR EPMO 261200Z 26007KT 3600 BR SCT005 OVC035 00/M01 Q1022= EPMO 11:30: METAR EPMO 261130Z 25005KT 3300 BR BKN006 OVC035 00/M00 Q1022=

TAF 2015/01/26 :

EPMO 11:30: TAF EPMO 261130Z 2612/2621 23005KT 3000 BR BKN030 BECMG 2612/2614 7000 NSW BECMG 2615/2617 17010KT= EPMO 8:30: TAF EPMO 260830Z 2609/2618 26005KT 0800 FZFG OVC002 PROB40 2609/2610 0300 FZFG OVC001 BECMG 2610/2612 3000 BR BKN005 BECMG 2612/2614 5000 BR=

Pogoda ogólna dla Polski